sensor_id;sensor_type;location;lat;lon;timestamp;temperature;humidity
13794;DHT22;31160;49.500;7.772;2023-03-14T00:01:38;10.20;99.90
13794;DHT22;31160;49.500;7.772;2023-03-14T00:04:05;10.10;99.90
13794;DHT22;31160;49.500;7.772;2023-03-14T00:06:31;10.10;99.90
13794;DHT22;31160;49.500;7.772;2023-03-14T00:08:58;10.10;99.90
13794;DHT22;31160;49.500;7.772;2023-03-14T00:11:25;10.10;99.90
13794;DHT22;31160;49.500;7.772;2023-03-14T00:13:52;10.00;99.90
13794;DHT22;31160;49.500;7.772;2023-03-14T00:16:20;9.90;99.90
13794;DHT22;31160;49.500;7.772;2023-03-14T00:18:47;9.80;99.90
13794;DHT22;31160;49.500;7.772;2023-03-14T00:21:14;9.70;99.90
13794;DHT22;31160;49.500;7.772;2023-03-14T00:23:42;9.60;99.90
13794;DHT22;31160;49.500;7.772;2023-03-14T00:26:12;9.50;99.90
13794;DHT22;31160;49.500;7.772;2023-03-14T00:28:40;9.50;99.90
13794;DHT22;31160;49.500;7.772;2023-03-14T00:31:10;9.40;99.90
13794;DHT22;31160;49.500;7.772;2023-03-14T00:33:40;9.50;99.90
13794;DHT22;31160;49.500;7.772;2023-03-14T00:36:13;9.40;99.90
13794;DHT22;31160;49.500;7.772;2023-03-14T00:38:41;9.40;99.90
13794;DHT22;31160;49.500;7.772;2023-03-14T00:41:10;9.40;99.90
13794;DHT22;31160;49.500;7.772;2023-03-14T00:43:37;9.40;99.90
13794;DHT22;31160;49.500;7.772;2023-03-14T00:46:04;9.50;99.90
13794;DHT22;31160;49.500;7.772;2023-03-14T00:48:32;9.60;99.90
13794;DHT22;31160;49.500;7.772;2023-03-14T00:51:00;9.70;99.90
13794;DHT22;31160;49.500;7.772;2023-03-14T00:53:27;9.70;99.90
13794;DHT22;31160;49.500;7.772;2023-03-14T00:55:53;9.60;99.90
13794;DHT22;31160;49.500;7.772;2023-03-14T00:58:20;9.60;99.90
13794;DHT22;31160;49.500;7.772;2023-03-14T01:00:47;9.70;99.90
13794;DHT22;31160;49.500;7.772;2023-03-14T01:03:14;9.80;99.90
13794;DHT22;31160;49.500;7.772;2023-03-14T01:05:41;9.70;99.90
13794;DHT22;31160;49.500;7.772;2023-03-14T01:08:08;9.80;99.90
13794;DHT22;31160;49.500;7.772;2023-03-14T01:10:39;9.80;99.90
13794;DHT22;31160;49.500;7.772;2023-03-14T01:13:07;9.90;99.90
13794;DHT22;31160;49.500;7.772;2023-03-14T01:15:36;9.80;99.90
13794;DHT22;31160;49.500;7.772;2023-03-14T01:18:03;9.70;99.90
13794;DHT22;31160;49.500;7.772;2023-03-14T01:20:30;9.80;99.90
13794;DHT22;31160;49.500;7.772;2023-03-14T01:22:57;9.90;99.90
13794;DHT22;31160;49.500;7.772;2023-03-14T01:25:23;9.90;99.90
13794;DHT22;31160;49.500;7.772;2023-03-14T01:27:50;9.80;99.90
13794;DHT22;31160;49.500;7.772;2023-03-14T01:30:17;9.90;99.90
13794;DHT22;31160;49.500;7.772;2023-03-14T01:32:44;9.90;99.90
13794;DHT22;31160;49.500;7.772;2023-03-14T01:35:11;10.00;99.90
13794;DHT22;31160;49.500;7.772;2023-03-14T01:37:38;10.00;99.90
13794;DHT22;31160;49.500;7.772;2023-03-14T01:40:11;9.80;99.90
13794;DHT22;31160;49.500;7.772;2023-03-14T01:42:38;9.70;99.90
13794;DHT22;31160;49.500;7.772;2023-03-14T01:48:15;9.60;99.90
13794;DHT22;31160;49.500;7.772;2023-03-14T01:50:41;9.60;99.90
13794;DHT22;31160;49.500;7.772;2023-03-14T01:53:08;9.70;99.90
13794;DHT22;31160;49.500;7.772;2023-03-14T01:55:36;9.70;99.90
13794;DHT22;31160;49.500;7.772;2023-03-14T01:58:04;9.70;99.90
13794;DHT22;31160;49.500;7.772;2023-03-14T02:00:31;9.70;99.90
13794;DHT22;31160;49.500;7.772;2023-03-14T02:03:02;9.60;99.90
13794;DHT22;31160;49.500;7.772;2023-03-14T02:05:35;9.60;99.90
13794;DHT22;31160;49.500;7.772;2023-03-14T02:08:12;9.50;99.90
13794;DHT22;31160;49.500;7.772;2023-03-14T02:10:48;9.40;99.90
13794;DHT22;31160;49.500;7.772;2023-03-14T02:13:21;9.30;99.90
13794;DHT22;31160;49.500;7.772;2023-03-14T02:16:08;9.30;99.90
13794;DHT22;31160;49.500;7.772;2023-03-14T02:18:54;9.30;99.90
13794;DHT22;31160;49.500;7.772;2023-03-14T02:22:18;9.30;99.90
13794;DHT22;31160;49.500;7.772;2023-03-14T02:25:08;9.40;99.90
13794;DHT22;31160;49.500;7.772;2023-03-14T02:27:39;9.50;99.90
13794;DHT22;31160;49.500;7.772;2023-03-14T02:30:12;9.50;99.90
13794;DHT22;31160;49.500;7.772;2023-03-14T02:32:45;9.60;99.90
13794;DHT22;31160;49.500;7.772;2023-03-14T02:35:18;9.70;99.90
13794;DHT22;31160;49.500;7.772;2023-03-14T02:40:23;9.70;99.90
13794;DHT22;31160;49.500;7.772;2023-03-14T02:42:51;9.60;99.90
13794;DHT22;31160;49.500;7.772;2023-03-14T02:47:56;9.80;99.90
13794;DHT22;31160;49.500;7.772;2023-03-14T02:50:29;9.70;99.90
13794;DHT22;31160;49.500;7.772;2023-03-14T02:52:57;9.70;99.90
13794;DHT22;31160;49.500;7.772;2023-03-14T02:55:24;9.80;99.90
13794;DHT22;31160;49.500;7.772;2023-03-14T02:57:56;9.80;99.90
13794;DHT22;31160;49.500;7.772;2023-03-14T03:00:23;9.70;99.90
13794;DHT22;31160;49.500;7.772;2023-03-14T03:02:51;9.80;99.90
13794;DHT22;31160;49.500;7.772;2023-03-14T03:05:18;9.70;99.90
13794;DHT22;31160;49.500;7.772;2023-03-14T03:07:44;9.60;99.90
13794;DHT22;31160;49.500;7.772;2023-03-14T03:10:12;9.60;99.90
13794;DHT22;31160;49.500;7.772;2023-03-14T03:12:38;9.60;99.90
13794;DHT22;31160;49.500;7.772;2023-03-14T03:15:05;9.70;99.90
13794;DHT22;31160;49.500;7.772;2023-03-14T03:17:35;9.70;99.90
13794;DHT22;31160;49.500;7.772;2023-03-14T03:20:02;9.60;99.90
13794;DHT22;31160;49.500;7.772;2023-03-14T03:22:31;9.60;99.90
13794;DHT22;31160;49.500;7.772;2023-03-14T03:24:57;9.60;99.90
13794;DHT22;31160;49.500;7.772;2023-03-14T03:27:24;9.50;99.90
13794;DHT22;31160;49.500;7.772;2023-03-14T03:29:51;9.50;99.90
13794;DHT22;31160;49.500;7.772;2023-03-14T03:32:18;9.50;99.90
13794;DHT22;31160;49.500;7.772;2023-03-14T03:34:45;9.50;99.90
13794;DHT22;31160;49.500;7.772;2023-03-14T03:37:12;9.40;99.90
13794;DHT22;31160;49.500;7.772;2023-03-14T03:39:40;9.40;99.90
13794;DHT22;31160;49.500;7.772;2023-03-14T03:42:07;9.40;99.90
13794;DHT22;31160;49.500;7.772;2023-03-14T03:44:34;9.50;99.90
13794;DHT22;31160;49.500;7.772;2023-03-14T03:47:01;9.60;99.90
13794;DHT22;31160;49.500;7.772;2023-03-14T03:49:31;9.50;99.90
13794;DHT22;31160;49.500;7.772;2023-03-14T03:51:59;9.40;99.90
13794;DHT22;31160;49.500;7.772;2023-03-14T03:54:26;9.50;99.90
13794;DHT22;31160;49.500;7.772;2023-03-14T03:56:55;9.50;99.90
13794;DHT22;31160;49.500;7.772;2023-03-14T03:59:22;9.30;99.90
13794;DHT22;31160;49.500;7.772;2023-03-14T04:01:49;9.20;99.90
13794;DHT22;31160;49.500;7.772;2023-03-14T04:04:16;9.20;99.90
13794;DHT22;31160;49.500;7.772;2023-03-14T04:06:43;9.20;99.90
13794;DHT22;31160;49.500;7.772;2023-03-14T04:09:11;9.10;99.90
13794;DHT22;31160;49.500;7.772;2023-03-14T04:11:45;9.00;99.90
13794;DHT22;31160;49.500;7.772;2023-03-14T04:14:21;9.00;99.90
13794;DHT22;31160;49.500;7.772;2023-03-14T04:16:54;9.10;99.90
13794;DHT22;31160;49.500;7.772;2023-03-14T04:19:21;9.10;99.90
13794;DHT22;31160;49.500;7.772;2023-03-14T04:21:49;9.10;99.90
13794;DHT22;31160;49.500;7.772;2023-03-14T04:24:18;9.00;99.90
13794;DHT22;31160;49.500;7.772;2023-03-14T04:26:47;9.00;99.90
13794;DHT22;31160;49.500;7.772;2023-03-14T04:29:14;8.90;99.90
13794;DHT22;31160;49.500;7.772;2023-03-14T04:31:44;8.90;99.90
13794;DHT22;31160;49.500;7.772;2023-03-14T04:34:10;9.00;99.90
13794;DHT22;31160;49.500;7.772;2023-03-14T04:36:43;9.00;99.90
13794;DHT22;31160;49.500;7.772;2023-03-14T04:39:15;8.90;99.90
13794;DHT22;31160;49.500;7.772;2023-03-14T04:41:50;8.90;99.90
13794;DHT22;31160;49.500;7.772;2023-03-14T04:44:17;8.80;99.90
13794;DHT22;31160;49.500;7.772;2023-03-14T04:46:45;8.80;99.90
13794;DHT22;31160;49.500;7.772;2023-03-14T04:49:12;8.80;99.90
13794;DHT22;31160;49.500;7.772;2023-03-14T04:51:39;8.80;99.90
13794;DHT22;31160;49.500;7.772;2023-03-14T04:54:07;9.00;99.90
13794;DHT22;31160;49.500;7.772;2023-03-14T04:56:33;9.00;99.90
13794;DHT22;31160;49.500;7.772;2023-03-14T04:59:01;8.90;99.90
13794;DHT22;31160;49.500;7.772;2023-03-14T05:01:29;9.00;99.90
13794;DHT22;31160;49.500;7.772;2023-03-14T05:04:15;9.00;99.90
13794;DHT22;31160;49.500;7.772;2023-03-14T05:07:06;9.00;99.90
13794;DHT22;31160;49.500;7.772;2023-03-14T05:09:45;9.00;99.90
13794;DHT22;31160;49.500;7.772;2023-03-14T05:12:25;9.00;99.90
13794;DHT22;31160;49.500;7.772;2023-03-14T05:14:57;9.00;99.90
13794;DHT22;31160;49.500;7.772;2023-03-14T05:17:42;8.90;99.90
13794;DHT22;31160;49.500;7.772;2023-03-14T05:20:28;9.00;99.90
13794;DHT22;31160;49.500;7.772;2023-03-14T05:23:14;8.90;99.90
13794;DHT22;31160;49.500;7.772;2023-03-14T05:26:05;8.80;99.90
13794;DHT22;31160;49.500;7.772;2023-03-14T05:28:41;9.00;99.90
13794;DHT22;31160;49.500;7.772;2023-03-14T05:31:25;9.00;99.90
13794;DHT22;31160;49.500;7.772;2023-03-14T05:34:24;9.00;99.90
13794;DHT22;31160;49.500;7.772;2023-03-14T05:37:03;9.00;99.90
13794;DHT22;31160;49.500;7.772;2023-03-14T05:39:56;9.00;99.90
13794;DHT22;31160;49.500;7.772;2023-03-14T05:42:41;8.90;99.90
13794;DHT22;31160;49.500;7.772;2023-03-14T05:45:08;8.90;99.90
13794;DHT22;31160;49.500;7.772;2023-03-14T05:47:47;8.90;99.90
13794;DHT22;31160;49.500;7.772;2023-03-14T05:50:26;8.80;99.90
13794;DHT22;31160;49.500;7.772;2023-03-14T05:53:18;8.80;99.90
13794;DHT22;31160;49.500;7.772;2023-03-14T05:56:09;8.80;99.90
13794;DHT22;31160;49.500;7.772;2023-03-14T05:58:54;8.80;99.90
13794;DHT22;31160;49.500;7.772;2023-03-14T06:01:27;8.70;99.90
13794;DHT22;31160;49.500;7.772;2023-03-14T06:04:10;8.80;99.90
13794;DHT22;31160;49.500;7.772;2023-03-14T06:06:36;8.80;99.90
13794;DHT22;31160;49.500;7.772;2023-03-14T06:09:05;8.60;99.90
13794;DHT22;31160;49.500;7.772;2023-03-14T06:11:34;8.60;99.90
13794;DHT22;31160;49.500;7.772;2023-03-14T06:14:01;8.60;99.90
13794;DHT22;31160;49.500;7.772;2023-03-14T06:16:28;8.60;99.90
13794;DHT22;31160;49.500;7.772;2023-03-14T06:18:55;8.60;99.90
13794;DHT22;31160;49.500;7.772;2023-03-14T06:21:23;8.50;99.90
13794;DHT22;31160;49.500;7.772;2023-03-14T06:23:50;8.50;99.90
13794;DHT22;31160;49.500;7.772;2023-03-14T06:26:18;8.50;99.90
13794;DHT22;31160;49.500;7.772;2023-03-14T06:28:45;8.50;99.90
13794;DHT22;31160;49.500;7.772;2023-03-14T06:31:11;8.50;99.90
13794;DHT22;31160;49.500;7.772;2023-03-14T06:33:48;8.60;99.90
13794;DHT22;31160;49.500;7.772;2023-03-14T06:36:15;8.60;99.90
13794;DHT22;31160;49.500;7.772;2023-03-14T06:38:44;8.70;99.90
13794;DHT22;31160;49.500;7.772;2023-03-14T06:41:12;8.60;99.90
13794;DHT22;31160;49.500;7.772;2023-03-14T06:43:42;8.70;99.90
13794;DHT22;31160;49.500;7.772;2023-03-14T06:46:09;8.80;99.90
13794;DHT22;31160;49.500;7.772;2023-03-14T06:48:38;8.70;99.90
13794;DHT22;31160;49.500;7.772;2023-03-14T06:51:06;8.80;99.90
13794;DHT22;31160;49.500;7.772;2023-03-14T06:53:33;8.90;99.90
13794;DHT22;31160;49.500;7.772;2023-03-14T06:56:01;8.80;99.90
13794;DHT22;31160;49.500;7.772;2023-03-14T06:58:30;8.80;99.90
13794;DHT22;31160;49.500;7.772;2023-03-14T07:00:58;8.80;99.90
13794;DHT22;31160;49.500;7.772;2023-03-14T07:03:30;8.90;99.90
13794;DHT22;31160;49.500;7.772;2023-03-14T07:05:58;9.00;99.90
13794;DHT22;31160;49.500;7.772;2023-03-14T07:08:26;9.20;99.90
13794;DHT22;31160;49.500;7.772;2023-03-14T07:10:53;9.00;99.90
13794;DHT22;31160;49.500;7.772;2023-03-14T07:13:22;9.00;99.90
13794;DHT22;31160;49.500;7.772;2023-03-14T07:15:57;9.00;99.90
13794;DHT22;31160;49.500;7.772;2023-03-14T07:18:24;9.10;99.90
13794;DHT22;31160;49.500;7.772;2023-03-14T07:20:50;9.20;99.90
13794;DHT22;31160;49.500;7.772;2023-03-14T07:23:18;9.20;99.90
13794;DHT22;31160;49.500;7.772;2023-03-14T07:25:48;9.20;99.90
13794;DHT22;31160;49.500;7.772;2023-03-14T07:28:17;9.30;99.90
13794;DHT22;31160;49.500;7.772;2023-03-14T07:30:47;9.30;99.90
13794;DHT22;31160;49.500;7.772;2023-03-14T07:33:19;9.30;99.90
13794;DHT22;31160;49.500;7.772;2023-03-14T07:35:47;9.40;99.90
13794;DHT22;31160;49.500;7.772;2023-03-14T07:38:15;9.50;99.90
13794;DHT22;31160;49.500;7.772;2023-03-14T07:41:03;9.50;99.90
13794;DHT22;31160;49.500;7.772;2023-03-14T07:43:33;9.40;99.90
13794;DHT22;31160;49.500;7.772;2023-03-14T07:46:00;9.40;99.90
13794;DHT22;31160;49.500;7.772;2023-03-14T07:48:27;9.30;99.90
13794;DHT22;31160;49.500;7.772;2023-03-14T07:50:55;9.30;99.90
13794;DHT22;31160;49.500;7.772;2023-03-14T07:53:22;9.40;99.90
13794;DHT22;31160;49.500;7.772;2023-03-14T07:55:53;9.60;99.90
13794;DHT22;31160;49.500;7.772;2023-03-14T07:58:20;9.70;99.90
13794;DHT22;31160;49.500;7.772;2023-03-14T08:00:51;9.60;99.90
13794;DHT22;31160;49.500;7.772;2023-03-14T08:03:18;9.60;99.90
13794;DHT22;31160;49.500;7.772;2023-03-14T08:05:49;9.50;99.90
13794;DHT22;31160;49.500;7.772;2023-03-14T08:08:17;9.40;99.90
13794;DHT22;31160;49.500;7.772;2023-03-14T08:10:44;9.50;99.90
13794;DHT22;31160;49.500;7.772;2023-03-14T08:13:12;9.50;99.90
13794;DHT22;31160;49.500;7.772;2023-03-14T08:15:39;9.40;99.90
13794;DHT22;31160;49.500;7.772;2023-03-14T08:18:06;9.70;99.90
13794;DHT22;31160;49.500;7.772;2023-03-14T08:20:33;10.00;99.90
13794;DHT22;31160;49.500;7.772;2023-03-14T08:23:00;10.10;99.90
13794;DHT22;31160;49.500;7.772;2023-03-14T08:25:29;10.30;99.90
13794;DHT22;31160;49.500;7.772;2023-03-14T08:27:56;10.40;99.90
13794;DHT22;31160;49.500;7.772;2023-03-14T08:30:23;10.30;99.90
13794;DHT22;31160;49.500;7.772;2023-03-14T08:32:50;10.20;99.90
13794;DHT22;31160;49.500;7.772;2023-03-14T08:35:17;10.20;99.90
13794;DHT22;31160;49.500;7.772;2023-03-14T08:37:43;10.40;99.90
13794;DHT22;31160;49.500;7.772;2023-03-14T08:40:10;10.30;99.90
13794;DHT22;31160;49.500;7.772;2023-03-14T08:42:39;10.50;99.90
13794;DHT22;31160;49.500;7.772;2023-03-14T08:45:07;10.30;99.90
13794;DHT22;31160;49.500;7.772;2023-03-14T08:47:34;10.20;99.90
13794;DHT22;31160;49.500;7.772;2023-03-14T08:50:02;10.40;99.90
13794;DHT22;31160;49.500;7.772;2023-03-14T08:52:31;10.30;99.90
13794;DHT22;31160;49.500;7.772;2023-03-14T08:54:58;10.40;99.90
13794;DHT22;31160;49.500;7.772;2023-03-14T08:57:25;10.20;99.90
13794;DHT22;31160;49.500;7.772;2023-03-14T08:59:56;10.00;99.90
13794;DHT22;31160;49.500;7.772;2023-03-14T09:02:24;10.10;99.90
13794;DHT22;31160;49.500;7.772;2023-03-14T09:04:51;10.10;99.90
13794;DHT22;31160;49.500;7.772;2023-03-14T09:07:18;10.10;99.90
13794;DHT22;31160;49.500;7.772;2023-03-14T09:09:45;10.00;99.90
13794;DHT22;31160;49.500;7.772;2023-03-14T09:12:12;10.00;99.90
13794;DHT22;31160;49.500;7.772;2023-03-14T09:14:39;10.00;99.90
13794;DHT22;31160;49.500;7.772;2023-03-14T09:17:05;9.80;99.90
13794;DHT22;31160;49.500;7.772;2023-03-14T09:19:33;9.80;99.90
13794;DHT22;31160;49.500;7.772;2023-03-14T09:21:59;9.90;99.90
13794;DHT22;31160;49.500;7.772;2023-03-14T09:24:26;9.90;99.90
13794;DHT22;31160;49.500;7.772;2023-03-14T09:26:54;10.20;99.90
13794;DHT22;31160;49.500;7.772;2023-03-14T09:29:22;10.20;99.90
13794;DHT22;31160;49.500;7.772;2023-03-14T09:31:49;10.40;99.90
13794;DHT22;31160;49.500;7.772;2023-03-14T09:34:16;10.50;99.90
13794;DHT22;31160;49.500;7.772;2023-03-14T09:36:43;10.50;99.90
13794;DHT22;31160;49.500;7.772;2023-03-14T09:39:11;10.40;99.90
13794;DHT22;31160;49.500;7.772;2023-03-14T09:41:41;10.30;99.90
13794;DHT22;31160;49.500;7.772;2023-03-14T09:46:39;10.60;99.90
13794;DHT22;31160;49.500;7.772;2023-03-14T09:49:20;10.70;99.90
13794;DHT22;31160;49.500;7.772;2023-03-14T09:51:49;10.80;99.90
13794;DHT22;31160;49.500;7.772;2023-03-14T09:56:53;10.90;99.90
13794;DHT22;31160;49.500;7.772;2023-03-14T09:59:20;11.00;99.90
13794;DHT22;31160;49.500;7.772;2023-03-14T10:01:47;11.10;99.90
13794;DHT22;31160;49.500;7.772;2023-03-14T10:04:16;11.10;99.90
13794;DHT22;31160;49.500;7.772;2023-03-14T10:06:43;11.00;99.90
13794;DHT22;31160;49.500;7.772;2023-03-14T10:09:22;11.20;99.90
13794;DHT22;31160;49.500;7.772;2023-03-14T10:11:56;11.40;99.90
13794;DHT22;31160;49.500;7.772;2023-03-14T10:14:33;11.10;99.90
13794;DHT22;31160;49.500;7.772;2023-03-14T10:17:13;10.50;99.90
13794;DHT22;31160;49.500;7.772;2023-03-14T10:19:55;10.50;99.90
13794;DHT22;31160;49.500;7.772;2023-03-14T10:22:32;10.40;99.90
13794;DHT22;31160;49.500;7.772;2023-03-14T10:25:05;10.40;99.90
13794;DHT22;31160;49.500;7.772;2023-03-14T10:27:34;10.20;99.90
13794;DHT22;31160;49.500;7.772;2023-03-14T10:30:07;10.20;99.90
13794;DHT22;31160;49.500;7.772;2023-03-14T10:32:45;10.20;99.90
13794;DHT22;31160;49.500;7.772;2023-03-14T10:38:00;10.10;99.90
13794;DHT22;31160;49.500;7.772;2023-03-14T10:40:38;10.30;99.90
13794;DHT22;31160;49.500;7.772;2023-03-14T10:43:12;10.20;99.90
13794;DHT22;31160;49.500;7.772;2023-03-14T10:45:41;10.20;99.90
13794;DHT22;31160;49.500;7.772;2023-03-14T10:48:22;10.20;99.90
13794;DHT22;31160;49.500;7.772;2023-03-14T10:53:45;10.10;99.90
13794;DHT22;31160;49.500;7.772;2023-03-14T10:56:20;10.00;99.90
13794;DHT22;31160;49.500;7.772;2023-03-14T10:58:50;9.90;99.90
13794;DHT22;31160;49.500;7.772;2023-03-14T11:04:01;9.70;99.90
13794;DHT22;31160;49.500;7.772;2023-03-14T11:06:40;9.80;99.90
13794;DHT22;31160;49.500;7.772;2023-03-14T11:09:29;9.90;99.90
13794;DHT22;31160;49.500;7.772;2023-03-14T11:12:26;9.90;99.90
13794;DHT22;31160;49.500;7.772;2023-03-14T11:15:09;10.10;99.90
13794;DHT22;31160;49.500;7.772;2023-03-14T11:23:06;9.80;99.90
13794;DHT22;31160;49.500;7.772;2023-03-14T11:25:39;10.00;99.90
13794;DHT22;31160;49.500;7.772;2023-03-14T11:28:17;9.90;99.90
13794;DHT22;31160;49.500;7.772;2023-03-14T11:30:55;9.70;99.90
13794;DHT22;31160;49.500;7.772;2023-03-14T11:33:35;9.50;99.90
13794;DHT22;31160;49.500;7.772;2023-03-14T11:36:11;9.50;99.90
13794;DHT22;31160;49.500;7.772;2023-03-14T11:38:50;9.40;99.90
13794;DHT22;31160;49.500;7.772;2023-03-14T11:41:41;9.30;99.90
13794;DHT22;31160;49.500;7.772;2023-03-14T11:46:55;9.30;99.90
13794;DHT22;31160;49.500;7.772;2023-03-14T11:49:45;9.50;99.90
13794;DHT22;31160;49.500;7.772;2023-03-14T11:55:00;9.50;99.90
13794;DHT22;31160;49.500;7.772;2023-03-14T11:57:29;9.50;99.90
13794;DHT22;31160;49.500;7.772;2023-03-14T12:00:17;9.60;99.90
13794;DHT22;31160;49.500;7.772;2023-03-14T12:03:11;9.60;99.90
13794;DHT22;31160;49.500;7.772;2023-03-14T12:06:45;9.70;99.90
13794;DHT22;31160;49.500;7.772;2023-03-14T12:09:02;9.90;99.90
13794;DHT22;31160;49.500;7.772;2023-03-14T12:11:41;10.10;99.90
13794;DHT22;31160;49.500;7.772;2023-03-14T12:14:22;10.60;99.90
13794;DHT22;31160;49.500;7.772;2023-03-14T12:17:03;10.90;99.90
13794;DHT22;31160;49.500;7.772;2023-03-14T12:19:33;10.90;99.90
13794;DHT22;31160;49.500;7.772;2023-03-14T12:24:50;10.90;99.90
13794;DHT22;31160;49.500;7.772;2023-03-14T12:30:30;10.10;99.90
13794;DHT22;31160;49.500;7.772;2023-03-14T12:35:49;9.50;99.90
13794;DHT22;31160;49.500;7.772;2023-03-14T12:41:23;9.70;99.90
13794;DHT22;31160;49.500;7.772;2023-03-14T12:43:51;9.80;99.90
13794;DHT22;31160;49.500;7.772;2023-03-14T12:48:49;9.80;99.90
13794;DHT22;31160;49.500;7.772;2023-03-14T12:51:19;9.90;99.90
13794;DHT22;31160;49.500;7.772;2023-03-14T12:56:56;9.70;99.90
13794;DHT22;31160;49.500;7.772;2023-03-14T12:59:38;9.50;99.90
13794;DHT22;31160;49.500;7.772;2023-03-14T13:04:37;9.30;99.90
13794;DHT22;31160;49.500;7.772;2023-03-14T13:07:29;9.10;99.90
13794;DHT22;31160;49.500;7.772;2023-03-14T13:12:47;9.00;99.90
13794;DHT22;31160;49.500;7.772;2023-03-14T13:15:23;9.00;99.90
13794;DHT22;31160;49.500;7.772;2023-03-14T13:17:52;9.00;99.90
13794;DHT22;31160;49.500;7.772;2023-03-14T13:20:34;9.00;99.90
13794;DHT22;31160;49.500;7.772;2023-03-14T13:23:02;8.80;99.90
13794;DHT22;31160;49.500;7.772;2023-03-14T13:25:33;8.40;99.90
13794;DHT22;31160;49.500;7.772;2023-03-14T13:28:01;8.50;99.90
13794;DHT22;31160;49.500;7.772;2023-03-14T13:30:39;8.60;99.90
13794;DHT22;31160;49.500;7.772;2023-03-14T13:33:11;8.70;99.90
13794;DHT22;31160;49.500;7.772;2023-03-14T13:35:42;9.00;99.90
13794;DHT22;31160;49.500;7.772;2023-03-14T13:38:17;9.10;99.90
13794;DHT22;31160;49.500;7.772;2023-03-14T13:40:46;9.30;99.90
13794;DHT22;31160;49.500;7.772;2023-03-14T13:48:16;9.50;99.90
13794;DHT22;31160;49.500;7.772;2023-03-14T13:50:51;9.50;99.90
13794;DHT22;31160;49.500;7.772;2023-03-14T13:53:18;9.60;99.90
13794;DHT22;31160;49.500;7.772;2023-03-14T13:55:45;9.50;99.90
13794;DHT22;31160;49.500;7.772;2023-03-14T13:58:31;9.90;99.90
13794;DHT22;31160;49.500;7.772;2023-03-14T14:03:25;10.30;99.90
13794;DHT22;31160;49.500;7.772;2023-03-14T14:05:55;10.40;99.30
13794;DHT22;31160;49.500;7.772;2023-03-14T14:08:23;10.20;98.20
13794;DHT22;31160;49.500;7.772;2023-03-14T14:10:55;9.90;98.50
13794;DHT22;31160;49.500;7.772;2023-03-14T14:13:24;9.80;99.40
13794;DHT22;31160;49.500;7.772;2023-03-14T14:15:52;9.90;99.80
13794;DHT22;31160;49.500;7.772;2023-03-14T14:18:23;9.80;99.80
13794;DHT22;31160;49.500;7.772;2023-03-14T14:20:51;9.90;99.90
13794;DHT22;31160;49.500;7.772;2023-03-14T14:25:52;10.30;99.20
13794;DHT22;31160;49.500;7.772;2023-03-14T14:28:31;9.90;99.10
13794;DHT22;31160;49.500;7.772;2023-03-14T14:33:57;9.70;99.70
13794;DHT22;31160;49.500;7.772;2023-03-14T14:39:04;9.60;97.60
13794;DHT22;31160;49.500;7.772;2023-03-14T14:41:39;9.50;98.10
13794;DHT22;31160;49.500;7.772;2023-03-14T14:44:11;9.50;98.80
13794;DHT22;31160;49.500;7.772;2023-03-14T14:46:38;9.60;97.90
13794;DHT22;31160;49.500;7.772;2023-03-14T14:49:14;9.50;97.40
13794;DHT22;31160;49.500;7.772;2023-03-14T14:51:44;9.70;97.60
13794;DHT22;31160;49.500;7.772;2023-03-14T14:54:37;9.60;96.40
13794;DHT22;31160;49.500;7.772;2023-03-14T14:57:06;9.70;97.60
13794;DHT22;31160;49.500;7.772;2023-03-14T14:59:43;9.60;96.40
13794;DHT22;31160;49.500;7.772;2023-03-14T15:02:29;9.70;96.40
13794;DHT22;31160;49.500;7.772;2023-03-14T15:04:57;9.80;95.60
13794;DHT22;31160;49.500;7.772;2023-03-14T15:07:24;9.70;95.50
13794;DHT22;31160;49.500;7.772;2023-03-14T15:09:53;9.70;95.80
13794;DHT22;31160;49.500;7.772;2023-03-14T15:12:20;9.70;96.40
13794;DHT22;31160;49.500;7.772;2023-03-14T15:14:47;9.80;96.50
13794;DHT22;31160;49.500;7.772;2023-03-14T15:17:14;9.60;96.10
13794;DHT22;31160;49.500;7.772;2023-03-14T15:19:41;9.50;96.40
13794;DHT22;31160;49.500;7.772;2023-03-14T15:22:13;9.60;96.70
13794;DHT22;31160;49.500;7.772;2023-03-14T15:24:41;9.60;96.80
13794;DHT22;31160;49.500;7.772;2023-03-14T15:27:16;9.50;96.70
13794;DHT22;31160;49.500;7.772;2023-03-14T15:29:44;9.50;97.00
13794;DHT22;31160;49.500;7.772;2023-03-14T15:32:15;9.50;96.20
13794;DHT22;31160;49.500;7.772;2023-03-14T15:34:43;9.60;96.10
13794;DHT22;31160;49.500;7.772;2023-03-14T15:37:15;9.60;96.50
13794;DHT22;31160;49.500;7.772;2023-03-14T15:39:43;9.80;96.50
13794;DHT22;31160;49.500;7.772;2023-03-14T15:42:10;9.70;96.20
13794;DHT22;31160;49.500;7.772;2023-03-14T15:44:37;9.60;96.30
13794;DHT22;31160;49.500;7.772;2023-03-14T15:47:04;9.50;96.60
13794;DHT22;31160;49.500;7.772;2023-03-14T15:49:32;9.30;97.00
13794;DHT22;31160;49.500;7.772;2023-03-14T15:51:59;9.10;97.60
13794;DHT22;31160;49.500;7.772;2023-03-14T15:54:25;8.90;98.20
13794;DHT22;31160;49.500;7.772;2023-03-14T15:56:55;8.90;98.70
13794;DHT22;31160;49.500;7.772;2023-03-14T15:59:23;8.70;99.60
13794;DHT22;31160;49.500;7.772;2023-03-14T16:01:50;8.80;99.20
13794;DHT22;31160;49.500;7.772;2023-03-14T16:04:17;9.00;99.60
13794;DHT22;31160;49.500;7.772;2023-03-14T16:06:44;9.00;99.30
13794;DHT22;31160;49.500;7.772;2023-03-14T16:09:12;8.90;98.20
13794;DHT22;31160;49.500;7.772;2023-03-14T16:11:39;9.10;98.10
13794;DHT22;31160;49.500;7.772;2023-03-14T16:14:06;9.00;98.60
13794;DHT22;31160;49.500;7.772;2023-03-14T16:16:32;9.10;97.90
13794;DHT22;31160;49.500;7.772;2023-03-14T16:18:59;9.00;97.80
13794;DHT22;31160;49.500;7.772;2023-03-14T16:21:26;9.00;98.10
13794;DHT22;31160;49.500;7.772;2023-03-14T16:23:53;9.00;98.60
13794;DHT22;31160;49.500;7.772;2023-03-14T16:26:20;8.90;98.70
13794;DHT22;31160;49.500;7.772;2023-03-14T16:28:47;8.90;99.20
13794;DHT22;31160;49.500;7.772;2023-03-14T16:31:17;9.00;99.20
13794;DHT22;31160;49.500;7.772;2023-03-14T16:33:44;9.00;98.60
13794;DHT22;31160;49.500;7.772;2023-03-14T16:36:12;8.90;98.60
13794;DHT22;31160;49.500;7.772;2023-03-14T16:38:40;8.90;98.90
13794;DHT22;31160;49.500;7.772;2023-03-14T16:41:11;8.80;99.30
13794;DHT22;31160;49.500;7.772;2023-03-14T16:43:39;8.80;99.20
13794;DHT22;31160;49.500;7.772;2023-03-14T16:46:10;9.10;99.60
13794;DHT22;31160;49.500;7.772;2023-03-14T16:48:37;9.00;99.80
13794;DHT22;31160;49.500;7.772;2023-03-14T16:51:04;8.80;99.90
13794;DHT22;31160;49.500;7.772;2023-03-14T16:53:31;8.80;99.90
13794;DHT22;31160;49.500;7.772;2023-03-14T16:55:58;8.90;99.90
13794;DHT22;31160;49.500;7.772;2023-03-14T16:58:26;8.90;99.90
13794;DHT22;31160;49.500;7.772;2023-03-14T17:00:53;9.00;99.90
13794;DHT22;31160;49.500;7.772;2023-03-14T17:03:19;9.00;99.90
13794;DHT22;31160;49.500;7.772;2023-03-14T17:05:48;9.00;99.90
13794;DHT22;31160;49.500;7.772;2023-03-14T17:08:16;8.70;99.90
13794;DHT22;31160;49.500;7.772;2023-03-14T17:10:44;8.40;99.90
13794;DHT22;31160;49.500;7.772;2023-03-14T17:13:11;8.30;99.90
13794;DHT22;31160;49.500;7.772;2023-03-14T17:15:38;8.30;99.90
13794;DHT22;31160;49.500;7.772;2023-03-14T17:18:08;8.20;99.90